sensor_id;sensor_type;location;lat;lon;timestamp;P1;durP1;ratioP1;P2;durP2;ratioP2
18166;SDS011;9208;42.688;23.404;2022-12-16T00:02:20;101.97;;;61.73;;
18166;SDS011;9208;42.688;23.404;2022-12-16T00:04:45;99.70;;;65.53;;
18166;SDS011;9208;42.688;23.404;2022-12-16T00:07:11;95.43;;;59.50;;
18166;SDS011;9208;42.688;23.404;2022-12-16T00:09:36;102.30;;;64.07;;
18166;SDS011;9208;42.688;23.404;2022-12-16T00:12:02;93.10;;;60.73;;
18166;SDS011;9208;42.688;23.404;2022-12-16T00:14:27;100.00;;;62.50;;
18166;SDS011;9208;42.688;23.404;2022-12-16T00:16:53;98.47;;;62.97;;
18166;SDS011;9208;42.688;23.404;2022-12-16T00:19:18;87.53;;;60.00;;
18166;SDS011;9208;42.688;23.404;2022-12-16T00:21:44;73.93;;;51.93;;
18166;SDS011;9208;42.688;23.404;2022-12-16T00:24:09;80.53;;;53.50;;
18166;SDS011;9208;42.688;23.404;2022-12-16T00:26:35;80.50;;;55.77;;
18166;SDS011;9208;42.688;23.404;2022-12-16T00:29:00;71.50;;;48.13;;
18166;SDS011;9208;42.688;23.404;2022-12-16T00:31:26;66.40;;;46.67;;
18166;SDS011;9208;42.688;23.404;2022-12-16T00:33:54;62.07;;;46.57;;
18166;SDS011;9208;42.688;23.404;2022-12-16T00:36:20;64.33;;;46.23;;
18166;SDS011;9208;42.688;23.404;2022-12-16T00:38:46;59.40;;;44.57;;
18166;SDS011;9208;42.688;23.404;2022-12-16T00:41:11;58.00;;;43.07;;
18166;SDS011;9208;42.688;23.404;2022-12-16T00:43:37;63.23;;;46.03;;
18166;SDS011;9208;42.688;23.404;2022-12-16T00:46:02;61.27;;;45.60;;
18166;SDS011;9208;42.688;23.404;2022-12-16T00:48:28;61.40;;;44.40;;
18166;SDS011;9208;42.688;23.404;2022-12-16T00:50:54;66.00;;;44.60;;
18166;SDS011;9208;42.688;23.404;2022-12-16T00:53:20;69.77;;;46.73;;
18166;SDS011;9208;42.688;23.404;2022-12-16T00:55:46;64.97;;;45.20;;
18166;SDS011;9208;42.688;23.404;2022-12-16T00:58:11;67.37;;;44.77;;
18166;SDS011;9208;42.688;23.404;2022-12-16T01:00:37;67.63;;;45.90;;
18166;SDS011;9208;42.688;23.404;2022-12-16T01:03:03;72.77;;;47.27;;
18166;SDS011;9208;42.688;23.404;2022-12-16T01:05:29;81.80;;;47.07;;
18166;SDS011;9208;42.688;23.404;2022-12-16T01:07:55;84.33;;;48.00;;
18166;SDS011;9208;42.688;23.404;2022-12-16T01:10:21;79.93;;;47.10;;
18166;SDS011;9208;42.688;23.404;2022-12-16T01:12:48;90.33;;;49.40;;
18166;SDS011;9208;42.688;23.404;2022-12-16T01:15:14;84.10;;;49.53;;
18166;SDS011;9208;42.688;23.404;2022-12-16T01:17:40;88.50;;;51.73;;
18166;SDS011;9208;42.688;23.404;2022-12-16T01:20:06;94.63;;;52.50;;
18166;SDS011;9208;42.688;23.404;2022-12-16T01:22:32;82.43;;;50.03;;
18166;SDS011;9208;42.688;23.404;2022-12-16T01:24:59;78.43;;;47.33;;
18166;SDS011;9208;42.688;23.404;2022-12-16T01:27:25;78.77;;;48.60;;
18166;SDS011;9208;42.688;23.404;2022-12-16T01:29:51;86.30;;;49.60;;
18166;SDS011;9208;42.688;23.404;2022-12-16T01:32:17;86.97;;;48.50;;
18166;SDS011;9208;42.688;23.404;2022-12-16T01:34:43;70.43;;;47.70;;
18166;SDS011;9208;42.688;23.404;2022-12-16T01:37:11;84.10;;;50.20;;
18166;SDS011;9208;42.688;23.404;2022-12-16T01:39:37;90.93;;;53.23;;
18166;SDS011;9208;42.688;23.404;2022-12-16T01:42:03;85.87;;;51.70;;
18166;SDS011;9208;42.688;23.404;2022-12-16T01:44:33;85.43;;;52.50;;
18166;SDS011;9208;42.688;23.404;2022-12-16T01:47:02;80.53;;;50.93;;
18166;SDS011;9208;42.688;23.404;2022-12-16T01:49:33;79.60;;;49.87;;
18166;SDS011;9208;42.688;23.404;2022-12-16T01:52:03;79.17;;;48.93;;
18166;SDS011;9208;42.688;23.404;2022-12-16T01:54:53;86.53;;;49.67;;
18166;SDS011;9208;42.688;23.404;2022-12-16T01:57:26;80.80;;;49.10;;
18166;SDS011;9208;42.688;23.404;2022-12-16T01:59:57;85.40;;;50.83;;
18166;SDS011;9208;42.688;23.404;2022-12-16T02:02:25;85.50;;;50.83;;
18166;SDS011;9208;42.688;23.404;2022-12-16T02:04:51;87.57;;;54.10;;
18166;SDS011;9208;42.688;23.404;2022-12-16T02:07:36;93.93;;;54.17;;
18166;SDS011;9208;42.688;23.404;2022-12-16T02:10:02;107.40;;;57.57;;
18166;SDS011;9208;42.688;23.404;2022-12-16T02:17:43;129.07;;;69.47;;
18166;SDS011;9208;42.688;23.404;2022-12-16T02:20:35;122.17;;;69.97;;
18166;SDS011;9208;42.688;23.404;2022-12-16T02:29:06;123.40;;;65.97;;
18166;SDS011;9208;42.688;23.404;2022-12-16T02:40:21;111.13;;;62.83;;
18166;SDS011;9208;42.688;23.404;2022-12-16T02:42:56;106.50;;;61.33;;
18166;SDS011;9208;42.688;23.404;2022-12-16T02:45:28;114.77;;;61.03;;
18166;SDS011;9208;42.688;23.404;2022-12-16T02:47:56;119.37;;;55.93;;
18166;SDS011;9208;42.688;23.404;2022-12-16T02:52:52;93.50;;;50.87;;
18166;SDS011;9208;42.688;23.404;2022-12-16T02:55:20;92.90;;;49.93;;
18166;SDS011;9208;42.688;23.404;2022-12-16T03:00:28;97.80;;;48.10;;
18166;SDS011;9208;42.688;23.404;2022-12-16T03:03:06;86.90;;;45.37;;
18166;SDS011;9208;42.688;23.404;2022-12-16T03:05:46;90.80;;;47.07;;
18166;SDS011;9208;42.688;23.404;2022-12-16T03:08:17;92.10;;;47.50;;
18166;SDS011;9208;42.688;23.404;2022-12-16T03:10:51;89.63;;;49.87;;
18166;SDS011;9208;42.688;23.404;2022-12-16T03:13:20;86.90;;;47.50;;
18166;SDS011;9208;42.688;23.404;2022-12-16T03:15:47;81.50;;;47.43;;
18166;SDS011;9208;42.688;23.404;2022-12-16T03:18:16;78.60;;;46.87;;
18166;SDS011;9208;42.688;23.404;2022-12-16T03:21:02;77.27;;;46.00;;
18166;SDS011;9208;42.688;23.404;2022-12-16T03:23:45;90.20;;;48.70;;
18166;SDS011;9208;42.688;23.404;2022-12-16T03:26:15;73.07;;;44.03;;
18166;SDS011;9208;42.688;23.404;2022-12-16T03:32:04;73.30;;;43.90;;
18166;SDS011;9208;42.688;23.404;2022-12-16T03:34:40;67.33;;;41.87;;
18166;SDS011;9208;42.688;23.404;2022-12-16T03:37:08;67.47;;;42.70;;
18166;SDS011;9208;42.688;23.404;2022-12-16T03:39:46;69.40;;;42.77;;
18166;SDS011;9208;42.688;23.404;2022-12-16T03:42:15;66.80;;;40.93;;
18166;SDS011;9208;42.688;23.404;2022-12-16T03:44:44;72.33;;;42.97;;
18166;SDS011;9208;42.688;23.404;2022-12-16T03:47:10;73.03;;;42.70;;
18166;SDS011;9208;42.688;23.404;2022-12-16T03:49:37;77.43;;;43.37;;
18166;SDS011;9208;42.688;23.404;2022-12-16T03:52:02;72.53;;;43.27;;
18166;SDS011;9208;42.688;23.404;2022-12-16T03:54:28;68.53;;;43.00;;
18166;SDS011;9208;42.688;23.404;2022-12-16T03:56:54;67.93;;;42.03;;
18166;SDS011;9208;42.688;23.404;2022-12-16T03:59:19;62.17;;;38.77;;
18166;SDS011;9208;42.688;23.404;2022-12-16T04:01:44;74.00;;;41.47;;
18166;SDS011;9208;42.688;23.404;2022-12-16T04:04:10;59.03;;;37.77;;
18166;SDS011;9208;42.688;23.404;2022-12-16T04:06:36;65.57;;;37.97;;
18166;SDS011;9208;42.688;23.404;2022-12-16T04:09:02;59.47;;;38.27;;
18166;SDS011;9208;42.688;23.404;2022-12-16T04:11:28;59.27;;;37.17;;
18166;SDS011;9208;42.688;23.404;2022-12-16T04:14:11;62.90;;;38.47;;
18166;SDS011;9208;42.688;23.404;2022-12-16T04:16:55;63.67;;;38.70;;
18166;SDS011;9208;42.688;23.404;2022-12-16T04:19:40;66.60;;;39.00;;
18166;SDS011;9208;42.688;23.404;2022-12-16T04:22:48;67.00;;;41.07;;
18166;SDS011;9208;42.688;23.404;2022-12-16T04:25:34;75.70;;;42.50;;
18166;SDS011;9208;42.688;23.404;2022-12-16T04:28:01;73.37;;;44.27;;
18166;SDS011;9208;42.688;23.404;2022-12-16T04:30:27;73.33;;;42.80;;
18166;SDS011;9208;42.688;23.404;2022-12-16T04:32:59;73.10;;;42.00;;
18166;SDS011;9208;42.688;23.404;2022-12-16T04:35:45;73.43;;;44.53;;
18166;SDS011;9208;42.688;23.404;2022-12-16T04:38:29;76.50;;;46.60;;
18166;SDS011;9208;42.688;23.404;2022-12-16T04:41:14;77.43;;;45.37;;
18166;SDS011;9208;42.688;23.404;2022-12-16T04:43:58;77.43;;;45.87;;
18166;SDS011;9208;42.688;23.404;2022-12-16T04:46:41;78.50;;;44.73;;
18166;SDS011;9208;42.688;23.404;2022-12-16T04:49:25;83.73;;;46.87;;
18166;SDS011;9208;42.688;23.404;2022-12-16T04:52:09;81.50;;;47.20;;
18166;SDS011;9208;42.688;23.404;2022-12-16T04:54:53;84.77;;;48.57;;
18166;SDS011;9208;42.688;23.404;2022-12-16T04:57:37;82.63;;;48.07;;
18166;SDS011;9208;42.688;23.404;2022-12-16T05:00:21;73.53;;;46.90;;
18166;SDS011;9208;42.688;23.404;2022-12-16T05:03:05;75.10;;;44.97;;
18166;SDS011;9208;42.688;23.404;2022-12-16T05:05:50;80.07;;;46.37;;
18166;SDS011;9208;42.688;23.404;2022-12-16T05:08:34;75.53;;;44.00;;
18166;SDS011;9208;42.688;23.404;2022-12-16T05:11:17;68.43;;;42.97;;
18166;SDS011;9208;42.688;23.404;2022-12-16T05:14:01;67.70;;;41.77;;
18166;SDS011;9208;42.688;23.404;2022-12-16T05:16:45;68.63;;;40.53;;
18166;SDS011;9208;42.688;23.404;2022-12-16T05:19:29;62.00;;;39.73;;
18166;SDS011;9208;42.688;23.404;2022-12-16T05:22:13;56.60;;;36.93;;
18166;SDS011;9208;42.688;23.404;2022-12-16T05:24:57;55.50;;;35.77;;
18166;SDS011;9208;42.688;23.404;2022-12-16T05:27:41;58.50;;;36.97;;
18166;SDS011;9208;42.688;23.404;2022-12-16T05:30:25;55.93;;;35.73;;
18166;SDS011;9208;42.688;23.404;2022-12-16T05:33:09;56.73;;;36.80;;
18166;SDS011;9208;42.688;23.404;2022-12-16T05:35:53;58.70;;;36.77;;
18166;SDS011;9208;42.688;23.404;2022-12-16T05:38:37;60.30;;;36.63;;
18166;SDS011;9208;42.688;23.404;2022-12-16T05:41:21;62.17;;;37.63;;
18166;SDS011;9208;42.688;23.404;2022-12-16T05:44:05;63.63;;;37.73;;
18166;SDS011;9208;42.688;23.404;2022-12-16T05:46:49;58.10;;;37.83;;
18166;SDS011;9208;42.688;23.404;2022-12-16T05:49:33;67.40;;;40.23;;
18166;SDS011;9208;42.688;23.404;2022-12-16T05:52:17;63.87;;;38.83;;
18166;SDS011;9208;42.688;23.404;2022-12-16T05:55:00;62.03;;;39.00;;
18166;SDS011;9208;42.688;23.404;2022-12-16T05:57:47;66.83;;;38.17;;
18166;SDS011;9208;42.688;23.404;2022-12-16T06:00:32;71.57;;;40.90;;
18166;SDS011;9208;42.688;23.404;2022-12-16T06:03:16;65.10;;;39.57;;
18166;SDS011;9208;42.688;23.404;2022-12-16T06:06:00;69.83;;;42.83;;
18166;SDS011;9208;42.688;23.404;2022-12-16T06:08:44;72.37;;;43.43;;
18166;SDS011;9208;42.688;23.404;2022-12-16T06:11:28;71.53;;;41.33;;
18166;SDS011;9208;42.688;23.404;2022-12-16T06:14:12;72.17;;;42.60;;
18166;SDS011;9208;42.688;23.404;2022-12-16T06:16:56;73.40;;;42.90;;
18166;SDS011;9208;42.688;23.404;2022-12-16T06:19:40;64.23;;;40.03;;
18166;SDS011;9208;42.688;23.404;2022-12-16T06:22:24;59.90;;;38.70;;
18166;SDS011;9208;42.688;23.404;2022-12-16T06:25:08;74.43;;;43.97;;
18166;SDS011;9208;42.688;23.404;2022-12-16T06:27:52;67.83;;;40.80;;
18166;SDS011;9208;42.688;23.404;2022-12-16T06:30:37;73.13;;;43.27;;
18166;SDS011;9208;42.688;23.404;2022-12-16T06:33:21;73.03;;;41.53;;
18166;SDS011;9208;42.688;23.404;2022-12-16T06:36:06;74.23;;;43.20;;
18166;SDS011;9208;42.688;23.404;2022-12-16T06:38:50;91.63;;;51.77;;
18166;SDS011;9208;42.688;23.404;2022-12-16T06:41:34;99.83;;;51.37;;
18166;SDS011;9208;42.688;23.404;2022-12-16T06:44:18;95.97;;;51.43;;
18166;SDS011;9208;42.688;23.404;2022-12-16T06:47:02;77.73;;;45.13;;
18166;SDS011;9208;42.688;23.404;2022-12-16T06:49:46;83.70;;;44.93;;
18166;SDS011;9208;42.688;23.404;2022-12-16T06:52:30;79.47;;;43.83;;
18166;SDS011;9208;42.688;23.404;2022-12-16T06:55:14;89.40;;;46.43;;
18166;SDS011;9208;42.688;23.404;2022-12-16T06:57:58;94.40;;;48.80;;
18166;SDS011;9208;42.688;23.404;2022-12-16T07:00:42;71.00;;;41.73;;
18166;SDS011;9208;42.688;23.404;2022-12-16T07:03:27;79.80;;;44.13;;
18166;SDS011;9208;42.688;23.404;2022-12-16T07:06:11;110.87;;;56.30;;
18166;SDS011;9208;42.688;23.404;2022-12-16T07:08:56;96.07;;;52.20;;
18166;SDS011;9208;42.688;23.404;2022-12-16T07:11:39;124.80;;;65.63;;
18166;SDS011;9208;42.688;23.404;2022-12-16T07:14:23;117.77;;;63.37;;
18166;SDS011;9208;42.688;23.404;2022-12-16T07:17:07;140.37;;;72.97;;
18166;SDS011;9208;42.688;23.404;2022-12-16T07:19:54;125.47;;;69.13;;
18166;SDS011;9208;42.688;23.404;2022-12-16T07:22:41;104.23;;;60.53;;
18166;SDS011;9208;42.688;23.404;2022-12-16T07:25:26;121.03;;;63.97;;
18166;SDS011;9208;42.688;23.404;2022-12-16T07:28:10;113.23;;;59.97;;
18166;SDS011;9208;42.688;23.404;2022-12-16T07:30:54;103.27;;;54.73;;
18166;SDS011;9208;42.688;23.404;2022-12-16T07:33:38;94.70;;;53.93;;
18166;SDS011;9208;42.688;23.404;2022-12-16T07:36:22;95.47;;;52.83;;
18166;SDS011;9208;42.688;23.404;2022-12-16T07:39:06;81.83;;;49.43;;
18166;SDS011;9208;42.688;23.404;2022-12-16T07:41:50;78.07;;;45.87;;
18166;SDS011;9208;42.688;23.404;2022-12-16T07:44:34;78.50;;;43.67;;
18166;SDS011;9208;42.688;23.404;2022-12-16T07:47:18;69.37;;;42.30;;
18166;SDS011;9208;42.688;23.404;2022-12-16T07:50:02;66.67;;;41.77;;
18166;SDS011;9208;42.688;23.404;2022-12-16T07:52:52;68.63;;;41.23;;
18166;SDS011;9208;42.688;23.404;2022-12-16T07:55:38;70.17;;;44.33;;
18166;SDS011;9208;42.688;23.404;2022-12-16T07:58:22;73.70;;;46.07;;
18166;SDS011;9208;42.688;23.404;2022-12-16T08:01:06;73.53;;;47.83;;
18166;SDS011;9208;42.688;23.404;2022-12-16T08:03:51;65.23;;;45.03;;
18166;SDS011;9208;42.688;23.404;2022-12-16T08:06:35;70.37;;;43.50;;
18166;SDS011;9208;42.688;23.404;2022-12-16T08:09:19;71.67;;;44.70;;
18166;SDS011;9208;42.688;23.404;2022-12-16T08:12:03;71.07;;;44.03;;
18166;SDS011;9208;42.688;23.404;2022-12-16T08:14:47;61.63;;;40.57;;
18166;SDS011;9208;42.688;23.404;2022-12-16T08:17:31;59.93;;;39.80;;
18166;SDS011;9208;42.688;23.404;2022-12-16T08:20:15;64.77;;;40.83;;
18166;SDS011;9208;42.688;23.404;2022-12-16T08:22:59;64.27;;;43.07;;
18166;SDS011;9208;42.688;23.404;2022-12-16T08:25:43;67.83;;;42.67;;
18166;SDS011;9208;42.688;23.404;2022-12-16T08:28:27;64.80;;;42.20;;
18166;SDS011;9208;42.688;23.404;2022-12-16T08:31:11;66.70;;;44.83;;
18166;SDS011;9208;42.688;23.404;2022-12-16T08:33:55;68.90;;;45.17;;
18166;SDS011;9208;42.688;23.404;2022-12-16T08:36:39;66.13;;;45.00;;
18166;SDS011;9208;42.688;23.404;2022-12-16T08:39:23;64.33;;;46.13;;
18166;SDS011;9208;42.688;23.404;2022-12-16T08:42:07;57.70;;;40.33;;
18166;SDS011;9208;42.688;23.404;2022-12-16T08:44:52;54.13;;;39.43;;
18166;SDS011;9208;42.688;23.404;2022-12-16T08:47:35;48.73;;;36.43;;
18166;SDS011;9208;42.688;23.404;2022-12-16T08:50:19;55.40;;;37.90;;
18166;SDS011;9208;42.688;23.404;2022-12-16T08:53:03;58.00;;;39.30;;
18166;SDS011;9208;42.688;23.404;2022-12-16T08:55:47;54.07;;;36.87;;
18166;SDS011;9208;42.688;23.404;2022-12-16T08:58:31;54.60;;;35.90;;
18166;SDS011;9208;42.688;23.404;2022-12-16T09:01:26;51.97;;;36.27;;
18166;SDS011;9208;42.688;23.404;2022-12-16T09:04:10;64.07;;;41.30;;
18166;SDS011;9208;42.688;23.404;2022-12-16T09:06:54;59.07;;;39.93;;
18166;SDS011;9208;42.688;23.404;2022-12-16T09:09:38;56.50;;;39.33;;
18166;SDS011;9208;42.688;23.404;2022-12-16T09:12:22;58.03;;;39.23;;
18166;SDS011;9208;42.688;23.404;2022-12-16T09:15:06;59.40;;;36.80;;
18166;SDS011;9208;42.688;23.404;2022-12-16T09:17:54;56.93;;;36.73;;
18166;SDS011;9208;42.688;23.404;2022-12-16T09:20:38;57.90;;;38.00;;
18166;SDS011;9208;42.688;23.404;2022-12-16T09:23:22;65.40;;;39.50;;
18166;SDS011;9208;42.688;23.404;2022-12-16T09:26:07;60.63;;;40.40;;
18166;SDS011;9208;42.688;23.404;2022-12-16T09:28:51;63.30;;;38.90;;
18166;SDS011;9208;42.688;23.404;2022-12-16T09:31:35;68.27;;;41.00;;
18166;SDS011;9208;42.688;23.404;2022-12-16T09:34:19;58.20;;;39.37;;
18166;SDS011;9208;42.688;23.404;2022-12-16T09:37:03;64.53;;;41.17;;
18166;SDS011;9208;42.688;23.404;2022-12-16T09:39:47;64.67;;;39.83;;
18166;SDS011;9208;42.688;23.404;2022-12-16T09:42:36;58.47;;;38.73;;
18166;SDS011;9208;42.688;23.404;2022-12-16T09:45:38;53.70;;;38.07;;
18166;SDS011;9208;42.688;23.404;2022-12-16T09:49:45;57.90;;;36.60;;
18166;SDS011;9208;42.688;23.404;2022-12-16T09:52:16;55.53;;;36.80;;
18166;SDS011;9208;42.688;23.404;2022-12-16T09:55:03;62.40;;;38.63;;
18166;SDS011;9208;42.688;23.404;2022-12-16T09:57:48;56.90;;;36.80;;
18166;SDS011;9208;42.688;23.404;2022-12-16T10:00:33;55.87;;;38.57;;
18166;SDS011;9208;42.688;23.404;2022-12-16T10:03:23;55.57;;;36.87;;
18166;SDS011;9208;42.688;23.404;2022-12-16T10:09:19;50.17;;;36.20;;
18166;SDS011;9208;42.688;23.404;2022-12-16T10:12:23;52.30;;;36.40;;
18166;SDS011;9208;42.688;23.404;2022-12-16T10:15:22;48.43;;;34.40;;
18166;SDS011;9208;42.688;23.404;2022-12-16T10:18:32;46.63;;;34.17;;
18166;SDS011;9208;42.688;23.404;2022-12-16T10:21:20;45.33;;;33.53;;
18166;SDS011;9208;42.688;23.404;2022-12-16T10:24:13;43.23;;;32.23;;
18166;SDS011;9208;42.688;23.404;2022-12-16T10:27:02;43.43;;;32.37;;
18166;SDS011;9208;42.688;23.404;2022-12-16T10:29:57;43.63;;;32.43;;
18166;SDS011;9208;42.688;23.404;2022-12-16T10:32:43;45.60;;;31.60;;
18166;SDS011;9208;42.688;23.404;2022-12-16T10:35:31;38.70;;;30.90;;
18166;SDS011;9208;42.688;23.404;2022-12-16T10:38:20;41.03;;;31.03;;
18166;SDS011;9208;42.688;23.404;2022-12-16T10:41:09;41.23;;;31.77;;
18166;SDS011;9208;42.688;23.404;2022-12-16T10:44:25;40.07;;;29.67;;
18166;SDS011;9208;42.688;23.404;2022-12-16T10:47:14;41.90;;;29.70;;
18166;SDS011;9208;42.688;23.404;2022-12-16T10:49:57;40.70;;;29.80;;
18166;SDS011;9208;42.688;23.404;2022-12-16T10:52:43;37.60;;;29.40;;
18166;SDS011;9208;42.688;23.404;2022-12-16T10:58:49;41.03;;;29.30;;
18166;SDS011;9208;42.688;23.404;2022-12-16T11:01:37;39.00;;;27.97;;
18166;SDS011;9208;42.688;23.404;2022-12-16T11:04:29;37.53;;;28.23;;
18166;SDS011;9208;42.688;23.404;2022-12-16T11:07:31;34.00;;;25.80;;
18166;SDS011;9208;42.688;23.404;2022-12-16T11:13:26;41.23;;;30.50;;
18166;SDS011;9208;42.688;23.404;2022-12-16T11:16:19;38.27;;;30.47;;
18166;SDS011;9208;42.688;23.404;2022-12-16T11:19:03;39.73;;;30.00;;
18166;SDS011;9208;42.688;23.404;2022-12-16T11:21:48;41.47;;;30.57;;
18166;SDS011;9208;42.688;23.404;2022-12-16T11:24:32;38.30;;;28.20;;
18166;SDS011;9208;42.688;23.404;2022-12-16T11:32:55;35.57;;;26.20;;
18166;SDS011;9208;42.688;23.404;2022-12-16T11:35:43;33.80;;;26.13;;
18166;SDS011;9208;42.688;23.404;2022-12-16T11:41:24;30.43;;;26.07;;
18166;SDS011;9208;42.688;23.404;2022-12-16T11:44:17;33.37;;;25.50;;
18166;SDS011;9208;42.688;23.404;2022-12-16T11:47:18;37.73;;;24.73;;
18166;SDS011;9208;42.688;23.404;2022-12-16T11:50:13;29.10;;;24.40;;
18166;SDS011;9208;42.688;23.404;2022-12-16T11:53:04;32.47;;;23.57;;
18166;SDS011;9208;42.688;23.404;2022-12-16T11:56:05;28.07;;;22.43;;
18166;SDS011;9208;42.688;23.404;2022-12-16T11:58:50;27.40;;;22.60;;
18166;SDS011;9208;42.688;23.404;2022-12-16T12:04:25;32.90;;;21.37;;
18166;SDS011;9208;42.688;23.404;2022-12-16T12:07:25;27.80;;;21.97;;
18166;SDS011;9208;42.688;23.404;2022-12-16T12:19:39;28.23;;;20.33;;
18166;SDS011;9208;42.688;23.404;2022-12-16T12:22:45;27.57;;;21.93;;
18166;SDS011;9208;42.688;23.404;2022-12-16T12:31:38;25.63;;;19.67;;
18166;SDS011;9208;42.688;23.404;2022-12-16T12:34:41;26.23;;;19.90;;
18166;SDS011;9208;42.688;23.404;2022-12-16T12:43:05;32.83;;;24.93;;
18166;SDS011;9208;42.688;23.404;2022-12-16T12:46:10;35.47;;;24.87;;
18166;SDS011;9208;42.688;23.404;2022-12-16T12:58:30;26.67;;;21.20;;
18166;SDS011;9208;42.688;23.404;2022-12-16T13:01:18;26.83;;;21.60;;
18166;SDS011;9208;42.688;23.404;2022-12-16T13:04:06;23.60;;;19.67;;
18166;SDS011;9208;42.688;23.404;2022-12-16T13:06:55;26.83;;;19.23;;
18166;SDS011;9208;42.688;23.404;2022-12-16T13:09:42;23.43;;;19.70;;
18166;SDS011;9208;42.688;23.404;2022-12-16T13:12:46;24.90;;;19.87;;
18166;SDS011;9208;42.688;23.404;2022-12-16T13:16:09;27.03;;;21.43;;
18166;SDS011;9208;42.688;23.404;2022-12-16T13:28:32;26.77;;;21.07;;
18166;SDS011;9208;42.688;23.404;2022-12-16T13:31:18;27.73;;;21.20;;
18166;SDS011;9208;42.688;23.404;2022-12-16T13:34:22;24.80;;;20.70;;
18166;SDS011;9208;42.688;23.404;2022-12-16T13:37:20;29.53;;;21.50;;
18166;SDS011;9208;42.688;23.404;2022-12-16T13:40:15;28.60;;;21.13;;
18166;SDS011;9208;42.688;23.404;2022-12-16T13:43:03;25.93;;;20.70;;
18166;SDS011;9208;42.688;23.404;2022-12-16T13:48:40;24.90;;;20.03;;
18166;SDS011;9208;42.688;23.404;2022-12-16T13:54:28;19.73;;;16.87;;
18166;SDS011;9208;42.688;23.404;2022-12-16T13:57:12;22.03;;;16.43;;
18166;SDS011;9208;42.688;23.404;2022-12-16T14:00:02;22.87;;;17.53;;
18166;SDS011;9208;42.688;23.404;2022-12-16T14:02:49;25.03;;;18.07;;
18166;SDS011;9208;42.688;23.404;2022-12-16T14:05:35;15.00;;;9.93;;
18166;SDS011;9208;42.688;23.404;2022-12-16T14:08:24;15.20;;;11.30;;
18166;SDS011;9208;42.688;23.404;2022-12-16T14:14:38;11.97;;;10.13;;
18166;SDS011;9208;42.688;23.404;2022-12-16T14:17:34;9.30;;;8.30;;
18166;SDS011;9208;42.688;23.404;2022-12-16T14:20:27;8.70;;;7.80;;
18166;SDS011;9208;42.688;23.404;2022-12-16T14:26:11;10.13;;;8.17;;
18166;SDS011;9208;42.688;23.404;2022-12-16T14:28:58;10.27;;;8.10;;
18166;SDS011;9208;42.688;23.404;2022-12-16T14:31:44;9.73;;;7.77;;
18166;SDS011;9208;42.688;23.404;2022-12-16T14:34:33;9.70;;;7.63;;
18166;SDS011;9208;42.688;23.404;2022-12-16T14:37:23;10.17;;;8.50;;
18166;SDS011;9208;42.688;23.404;2022-12-16T14:40:29;10.83;;;8.00;;
18166;SDS011;9208;42.688;23.404;2022-12-16T14:43:22;10.40;;;8.47;;
18166;SDS011;9208;42.688;23.404;2022-12-16T14:49:01;10.23;;;8.43;;
18166;SDS011;9208;42.688;23.404;2022-12-16T14:51:46;12.93;;;7.90;;
18166;SDS011;9208;42.688;23.404;2022-12-16T14:54:38;9.27;;;7.93;;
18166;SDS011;9208;42.688;23.404;2022-12-16T14:57:29;11.50;;;10.10;;
18166;SDS011;9208;42.688;23.404;2022-12-16T15:06:05;8.83;;;7.67;;
18166;SDS011;9208;42.688;23.404;2022-12-16T15:08:56;10.40;;;7.80;;
18166;SDS011;9208;42.688;23.404;2022-12-16T15:11:46;9.13;;;7.57;;
18166;SDS011;9208;42.688;23.404;2022-12-16T15:14:33;8.33;;;6.90;;
18166;SDS011;9208;42.688;23.404;2022-12-16T15:17:29;10.33;;;7.37;;
18166;SDS011;9208;42.688;23.404;2022-12-16T15:20:19;11.07;;;7.53;;
18166;SDS011;9208;42.688;23.404;2022-12-16T15:23:51;11.63;;;7.20;;
18166;SDS011;9208;42.688;23.404;2022-12-16T15:26:20;12.53;;;7.07;;
18166;SDS011;9208;42.688;23.404;2022-12-16T15:29:32;8.17;;;6.53;;
18166;SDS011;9208;42.688;23.404;2022-12-16T15:32:36;9.40;;;6.67;;
18166;SDS011;9208;42.688;23.404;2022-12-16T15:40:58;11.73;;;7.73;;
18166;SDS011;9208;42.688;23.404;2022-12-16T15:43:44;7.93;;;6.27;;
18166;SDS011;9208;42.688;23.404;2022-12-16T15:46:29;7.17;;;6.20;;
18166;SDS011;9208;42.688;23.404;2022-12-16T15:52:20;7.90;;;6.70;;
18166;SDS011;9208;42.688;23.404;2022-12-16T16:01:02;13.20;;;7.30;;
18166;SDS011;9208;42.688;23.404;2022-12-16T16:03:47;10.70;;;7.33;;
18166;SDS011;9208;42.688;23.404;2022-12-16T16:06:34;10.63;;;7.20;;
18166;SDS011;9208;42.688;23.404;2022-12-16T16:12:10;7.93;;;6.43;;
18166;SDS011;9208;42.688;23.404;2022-12-16T16:14:55;9.93;;;7.10;;
18166;SDS011;9208;42.688;23.404;2022-12-16T16:17:40;11.07;;;7.00;;
18166;SDS011;9208;42.688;23.404;2022-12-16T16:20:24;11.70;;;7.17;;
18166;SDS011;9208;42.688;23.404;2022-12-16T16:23:09;8.13;;;7.00;;
18166;SDS011;9208;42.688;23.404;2022-12-16T16:25:53;8.20;;;6.73;;
18166;SDS011;9208;42.688;23.404;2022-12-16T16:28:38;8.07;;;6.77;;
18166;SDS011;9208;42.688;23.404;2022-12-16T16:31:32;9.27;;;7.63;;
18166;SDS011;9208;42.688;23.404;2022-12-16T16:34:16;10.77;;;7.70;;
18166;SDS011;9208;42.688;23.404;2022-12-16T16:37:00;8.03;;;6.33;;
18166;SDS011;9208;42.688;23.404;2022-12-16T16:39:44;8.73;;;6.87;;
18166;SDS011;9208;42.688;23.404;2022-12-16T16:42:28;10.30;;;6.90;;
18166;SDS011;9208;42.688;23.404;2022-12-16T16:45:14;8.50;;;7.00;;
18166;SDS011;9208;42.688;23.404;2022-12-16T16:50:56;11.13;;;7.67;;
18166;SDS011;9208;42.688;23.404;2022-12-16T16:53:41;10.70;;;7.30;;
18166;SDS011;9208;42.688;23.404;2022-12-16T16:56:26;10.63;;;7.10;;
18166;SDS011;9208;42.688;23.404;2022-12-16T16:59:13;7.63;;;6.57;;
18166;SDS011;9208;42.688;23.404;2022-12-16T17:01:57;8.30;;;7.00;;
18166;SDS011;9208;42.688;23.404;2022-12-16T17:04:41;9.77;;;6.73;;
18166;SDS011;9208;42.688;23.404;2022-12-16T17:07:25;9.20;;;6.80;;
18166;SDS011;9208;42.688;23.404;2022-12-16T17:10:09;8.67;;;6.20;;
18166;SDS011;9208;42.688;23.404;2022-12-16T17:12:53;6.73;;;6.03;;
18166;SDS011;9208;42.688;23.404;2022-12-16T17:15:38;10.27;;;7.00;;
18166;SDS011;9208;42.688;23.404;2022-12-16T17:18:22;9.13;;;6.67;;
18166;SDS011;9208;42.688;23.404;2022-12-16T17:21:06;8.60;;;6.23;;
18166;SDS011;9208;42.688;23.404;2022-12-16T17:23:50;7.67;;;6.17;;
18166;SDS011;9208;42.688;23.404;2022-12-16T17:26:34;8.60;;;6.20;;
18166;SDS011;9208;42.688;23.404;2022-12-16T17:29:23;7.40;;;5.97;;
18166;SDS011;9208;42.688;23.404;2022-12-16T17:32:08;7.23;;;5.87;;
18166;SDS011;9208;42.688;23.404;2022-12-16T17:34:53;7.00;;;5.77;;
18166;SDS011;9208;42.688;23.404;2022-12-16T17:37:37;6.33;;;5.73;;
18166;SDS011;9208;42.688;23.404;2022-12-16T17:40:21;6.70;;;6.00;;
18166;SDS011;9208;42.688;23.404;2022-12-16T17:43:05;7.00;;;5.70;;
18166;SDS011;9208;42.688;23.404;2022-12-16T17:45:58;7.27;;;6.00;;
18166;SDS011;9208;42.688;23.404;2022-12-16T17:48:49;6.67;;;5.87;;
18166;SDS011;9208;42.688;23.404;2022-12-16T17:51:34;7.20;;;5.87;;
18166;SDS011;9208;42.688;23.404;2022-12-16T17:54:18;8.33;;;6.00;;
18166;SDS011;9208;42.688;23.404;2022-12-16T17:57:02;7.93;;;6.53;;
18166;SDS011;9208;42.688;23.404;2022-12-16T17:59:45;8.17;;;6.70;;
18166;SDS011;9208;42.688;23.404;2022-12-16T18:02:29;7.37;;;6.10;;
18166;SDS011;9208;42.688;23.404;2022-12-16T18:05:14;7.73;;;6.30;;
18166;SDS011;9208;42.688;23.404;2022-12-16T18:07:57;7.60;;;6.67;;